createdAt,value
2022-10-09T00:00:10.108Z,5.5
2022-10-09T00:05:10.152Z,5.6
2022-10-09T00:10:10.122Z,5.5
2022-10-09T00:15:10.098Z,5.6
2022-10-09T00:20:10.097Z,5.4
2022-10-09T00:25:10.096Z,5.5
2022-10-09T00:30:10.098Z,5.4
2022-10-09T00:35:10.101Z,5.5
2022-10-09T00:40:10.114Z,5.3
2022-10-09T00:45:10.099Z,5.3
2022-10-09T00:50:10.096Z,5.3
2022-10-09T00:55:10.106Z,5.5
2022-10-09T01:00:10.090Z,5.4
2022-10-09T01:05:10.107Z,5.6
2022-10-09T01:10:10.091Z,5.6
2022-10-09T01:15:10.100Z,5.7
2022-10-09T01:20:10.093Z,5.6
2022-10-09T01:25:10.100Z,5.5
2022-10-09T01:30:10.091Z,5.4
2022-10-09T01:35:10.334Z,5.1
2022-10-09T01:40:10.098Z,5
2022-10-09T01:45:10.104Z,4.9
2022-10-09T01:50:10.104Z,4.9
2022-10-09T01:55:10.105Z,4.8
2022-10-09T02:00:10.107Z,5.1
2022-10-09T02:05:10.111Z,4.9
2022-10-09T02:10:10.101Z,5.2
2022-10-09T02:15:10.137Z,5.2
2022-10-09T02:20:10.105Z,5.2
2022-10-09T02:25:10.108Z,5.1
2022-10-09T02:30:10.095Z,4.8
2022-10-09T02:35:10.105Z,4.6
2022-10-09T02:40:10.927Z,4.6
2022-10-09T02:45:10.118Z,4.4
2022-10-09T02:50:10.094Z,4.5
2022-10-09T02:55:10.109Z,4.5
2022-10-09T03:00:10.112Z,4.5
2022-10-09T03:05:10.098Z,4.4
2022-10-09T03:10:10.104Z,4.4
2022-10-09T03:15:10.097Z,4.6
2022-10-09T03:20:10.100Z,4.8
2022-10-09T03:25:10.100Z,4.9
2022-10-09T03:30:10.109Z,5.3
2022-10-09T03:35:10.103Z,5.4
2022-10-09T03:40:10.104Z,5.5
2022-10-09T03:45:10.104Z,5.5
2022-10-09T03:50:10.102Z,5.5
2022-10-09T03:55:10.102Z,5.5
2022-10-09T04:00:10.098Z,5.5
2022-10-09T04:05:10.100Z,5.5
2022-10-09T04:10:10.099Z,5.4
2022-10-09T04:15:10.101Z,5.4
2022-10-09T04:20:10.105Z,5.4
2022-10-09T04:25:10.105Z,5.4
2022-10-09T04:30:10.203Z,5.3
2022-10-09T04:35:10.107Z,5.3
2022-10-09T04:40:10.094Z,5.2
2022-10-09T04:45:10.107Z,5.2
2022-10-09T04:50:10.105Z,5.2
2022-10-09T04:55:10.104Z,5.2
2022-10-09T05:00:10.108Z,5.2
2022-10-09T05:05:10.115Z,5.2
2022-10-09T05:10:10.107Z,5.2
2022-10-09T05:15:10.110Z,5.1
2022-10-09T05:20:10.097Z,5.4
2022-10-09T05:25:10.108Z,5.2
2022-10-09T05:30:10.096Z,5.1
2022-10-09T05:35:10.114Z,5
2022-10-09T05:40:10.091Z,4.9
2022-10-09T05:45:10.099Z,4.9
2022-10-09T05:50:10.107Z,5
2022-10-09T05:55:10.113Z,5
2022-10-09T06:00:10.104Z,5.1
2022-10-09T06:05:10.108Z,5.2
2022-10-09T06:10:10.093Z,5.3
2022-10-09T06:15:10.111Z,5.4
2022-10-09T06:20:10.107Z,5.5
2022-10-09T06:25:10.105Z,5.6
2022-10-09T06:30:10.106Z,5.7
2022-10-09T06:35:10.096Z,5.9
2022-10-09T06:40:10.096Z,6.1
2022-10-09T06:45:10.099Z,6.2
2022-10-09T06:50:10.105Z,6.3
2022-10-09T06:55:10.108Z,6.3
2022-10-09T07:00:10.097Z,6.5
2022-10-09T07:05:10.106Z,6.9
2022-10-09T07:10:10.093Z,7.5
2022-10-09T07:15:10.101Z,7.5
2022-10-09T07:20:10.101Z,7.8
2022-10-09T07:25:10.111Z,8
2022-10-09T07:30:10.093Z,8.5
2022-10-09T07:35:10.112Z,8.7
2022-10-09T07:40:10.097Z,8.8
2022-10-09T07:45:10.100Z,8.7
2022-10-09T07:50:10.102Z,9
2022-10-09T07:55:10.093Z,8.7
2022-10-09T08:00:10.102Z,8.9
2022-10-09T08:05:10.107Z,9.1
2022-10-09T08:10:10.095Z,9.2
2022-10-09T08:15:10.100Z,9
2022-10-09T08:20:10.092Z,9.5
2022-10-09T08:25:10.097Z,9.6
2022-10-09T08:30:10.100Z,9.6
2022-10-09T08:35:10.112Z,9.6
2022-10-09T08:40:10.094Z,9.9
2022-10-09T08:45:10.107Z,10.4
2022-10-09T08:50:10.095Z,10.5
2022-10-09T08:55:10.095Z,10
2022-10-09T09:00:10.097Z,10.4
2022-10-09T09:05:10.109Z,10.5
2022-10-09T09:10:10.098Z,10.8
2022-10-09T09:15:10.105Z,10.9
2022-10-09T09:20:10.095Z,11
2022-10-09T09:25:10.106Z,11
2022-10-09T09:30:10.099Z,11.4
2022-10-09T09:35:10.105Z,11.3
2022-10-09T09:45:10.100Z,11.6
2022-10-09T09:50:23.633Z,11.8
2022-10-09T09:55:10.094Z,11.8
2022-10-09T10:00:10.089Z,11.9
2022-10-09T10:05:10.105Z,12.1
2022-10-09T10:10:10.093Z,12.4
2022-10-09T10:15:10.091Z,12.4
2022-10-09T10:20:10.099Z,12.6
2022-10-09T10:25:11.433Z,13
2022-10-09T10:30:10.097Z,13.1
2022-10-09T10:35:10.105Z,13.1
2022-10-09T10:40:10.093Z,13.4
2022-10-09T10:45:10.101Z,13.6
2022-10-09T10:50:10.094Z,13.5
2022-10-09T10:55:10.105Z,13.6
2022-10-09T11:00:10.097Z,13.9
2022-10-09T11:05:10.103Z,14
2022-10-09T11:10:10.103Z,14.1
2022-10-09T11:15:10.101Z,14.2
2022-10-09T11:20:10.104Z,14.2
2022-10-09T11:25:10.109Z,14.4
2022-10-09T11:30:10.102Z,14.5
2022-10-09T11:35:10.098Z,15.1
2022-10-09T11:40:10.109Z,14.6
2022-10-09T11:45:10.104Z,14.8
2022-10-09T11:50:10.097Z,15.1
2022-10-09T11:55:10.105Z,15.1
2022-10-09T12:00:10.099Z,15
2022-10-09T12:05:10.098Z,15
2022-10-09T12:10:10.097Z,15.1
2022-10-09T12:15:10.100Z,15.3
2022-10-09T12:20:10.093Z,15.2
2022-10-09T12:25:10.104Z,15.2
2022-10-09T12:30:10.088Z,15.3
2022-10-09T12:35:10.112Z,15.3
2022-10-09T12:40:10.092Z,15.6
2022-10-09T12:45:10.091Z,15.6
2022-10-09T12:50:10.102Z,15.6
2022-10-09T12:55:10.107Z,15.5
2022-10-09T13:00:10.102Z,15.7
2022-10-09T13:05:10.109Z,15.6
2022-10-09T13:10:10.105Z,15.7
2022-10-09T13:15:10.116Z,15.9
2022-10-09T13:20:10.088Z,16.1
2022-10-09T13:25:10.118Z,16.2
2022-10-09T13:30:10.097Z,16.4
2022-10-09T13:35:10.111Z,16.3
2022-10-09T13:40:10.214Z,16.2
2022-10-09T13:45:10.108Z,16.3
2022-10-09T13:50:10.145Z,16.5
2022-10-09T13:55:10.118Z,16.5
2022-10-09T14:00:10.110Z,16.5
2022-10-09T14:05:10.115Z,16.6
2022-10-09T14:10:10.247Z,16.7
2022-10-09T14:15:10.114Z,16.5
2022-10-09T14:20:10.103Z,16.5
2022-10-09T14:25:10.111Z,16.6
2022-10-09T14:30:10.102Z,16.7
2022-10-09T14:35:10.110Z,16.7
2022-10-09T14:40:10.103Z,16.6
2022-10-09T14:45:10.106Z,16.6
2022-10-09T14:50:10.105Z,16.6
2022-10-09T14:55:10.096Z,16.6
2022-10-09T15:00:10.087Z,16.5
2022-10-09T15:05:10.102Z,16.5
2022-10-09T15:10:10.097Z,16.5
2022-10-09T15:15:10.109Z,16.5
2022-10-09T15:20:10.099Z,16.4
2022-10-09T15:25:10.101Z,16.3
2022-10-09T15:30:10.093Z,16.2
2022-10-09T15:35:10.098Z,16.1
2022-10-09T15:40:10.113Z,16
2022-10-09T15:45:10.109Z,15.8
2022-10-09T15:50:10.098Z,15.8
2022-10-09T15:55:10.104Z,15.5
2022-10-09T16:00:10.101Z,15.5
2022-10-09T16:05:10.103Z,15.3
2022-10-09T16:10:10.101Z,15.3
2022-10-09T16:15:10.104Z,15.1
2022-10-09T16:20:10.096Z,14.8
2022-10-09T16:25:10.104Z,14.5
2022-10-09T16:30:10.107Z,14.2
2022-10-09T16:35:10.102Z,14
2022-10-09T16:40:10.101Z,13.7
2022-10-09T16:45:10.099Z,13.3
2022-10-09T16:50:10.100Z,13.1
2022-10-09T16:55:10.102Z,12.9
2022-10-09T17:00:10.098Z,12.7
2022-10-09T17:05:10.108Z,12.5
2022-10-09T17:10:10.102Z,12.1
2022-10-09T17:15:10.110Z,11.6
2022-10-09T17:20:10.090Z,11.1
2022-10-09T17:25:10.094Z,10.9
2022-10-09T17:30:10.102Z,10.6
2022-10-09T17:35:10.100Z,10.3
2022-10-09T17:40:10.104Z,10.1
2022-10-09T17:45:10.100Z,9.7
2022-10-09T17:50:10.106Z,9.6
2022-10-09T17:55:10.103Z,9.1
2022-10-09T18:00:10.100Z,8.8
2022-10-09T18:05:10.099Z,8.6
2022-10-09T18:10:10.106Z,8.4
2022-10-09T18:15:10.106Z,8.4
2022-10-09T18:20:10.091Z,8.3
2022-10-09T18:25:10.111Z,8.3
2022-10-09T18:30:10.103Z,8.2
2022-10-09T18:35:10.098Z,8.1
2022-10-09T18:40:10.104Z,8
2022-10-09T18:45:10.097Z,7.9
2022-10-09T18:50:10.092Z,7.9
2022-10-09T18:55:10.191Z,8
2022-10-09T19:00:10.093Z,7.8
2022-10-09T19:05:10.102Z,7.7
2022-10-09T19:10:10.105Z,7.6
2022-10-09T19:15:12.193Z,7.6
2022-10-09T19:20:10.128Z,7.6
2022-10-09T19:25:10.122Z,7.7
2022-10-09T19:30:10.094Z,7.7
2022-10-09T19:35:10.102Z,7.7
2022-10-09T19:40:10.110Z,7.9
2022-10-09T19:45:10.110Z,7.9
2022-10-09T19:50:10.102Z,8
2022-10-09T19:55:10.107Z,8.6
2022-10-09T20:00:10.104Z,8.8
2022-10-09T20:05:10.105Z,8.6
2022-10-09T20:10:10.359Z,8.4
2022-10-09T20:15:10.109Z,8.4
2022-10-09T20:20:10.096Z,8.6
2022-10-09T20:25:10.100Z,8.7
2022-10-09T20:30:10.094Z,8.6
2022-10-09T20:35:10.103Z,8.3
2022-10-09T20:40:10.099Z,8.2
2022-10-09T20:45:10.105Z,8.2
2022-10-09T20:50:10.092Z,8.2
2022-10-09T20:55:10.101Z,8.2
2022-10-09T21:00:10.091Z,8.3
2022-10-09T21:05:10.099Z,8.3
2022-10-09T21:10:10.103Z,8.4
2022-10-09T21:15:10.098Z,8.4
2022-10-09T21:20:10.089Z,8.4
2022-10-09T21:25:10.099Z,8.5
2022-10-09T21:30:10.091Z,8.5
2022-10-09T21:35:10.102Z,8.5
2022-10-09T21:40:10.093Z,8.5
2022-10-09T21:45:10.096Z,8.6
2022-10-09T21:50:10.100Z,8.6
2022-10-09T21:55:10.171Z,8.8
2022-10-09T22:00:10.151Z,8.8
2022-10-09T22:05:10.098Z,8.8
2022-10-09T22:10:10.103Z,8.9
2022-10-09T22:15:10.101Z,8.9
2022-10-09T22:20:10.095Z,9
2022-10-09T22:25:10.101Z,9.1
2022-10-09T22:30:10.102Z,9.2
2022-10-09T22:35:10.109Z,9.3
2022-10-09T22:40:10.105Z,9.5
2022-10-09T22:45:10.109Z,9.5
2022-10-09T22:50:10.111Z,9.3
2022-10-09T22:55:10.095Z,9.4
2022-10-09T23:00:10.099Z,9.4
2022-10-09T23:05:10.106Z,9.5
2022-10-09T23:10:10.094Z,9.4
2022-10-09T23:15:10.101Z,9.4
2022-10-09T23:20:10.096Z,9.3
2022-10-09T23:25:10.107Z,9.3
2022-10-09T23:30:10.101Z,9.3
2022-10-09T23:35:10.111Z,9.3
2022-10-09T23:40:10.094Z,9.3
2022-10-09T23:45:10.102Z,9.3
2022-10-09T23:50:10.108Z,9.3
2022-10-09T23:55:10.103Z,9.3
